sensor_id;sensor_type;location;lat;lon;timestamp;pressure;altitude;pressure_sealevel;temperature;humidity
83308;BME280;73223;48.584;13.460;2023-12-20T00:00:36;96845.31;;;-0.74;100.00
83308;BME280;73223;48.584;13.460;2023-12-20T00:03:03;96841.88;;;-0.03;100.00
83308;BME280;73223;48.584;13.460;2023-12-20T00:05:29;96839.81;;;-0.35;100.00
83308;BME280;73223;48.584;13.460;2023-12-20T00:08:00;96829.44;;;-0.51;100.00
83308;BME280;73223;48.584;13.460;2023-12-20T00:10:28;96837.31;;;-0.30;100.00
83308;BME280;73223;48.584;13.460;2023-12-20T00:12:54;96833.00;;;-0.39;100.00
83308;BME280;73223;48.584;13.460;2023-12-20T00:15:26;96823.69;;;-0.33;100.00
83308;BME280;73223;48.584;13.460;2023-12-20T00:17:53;96821.53;;;-0.74;100.00
83308;BME280;73223;48.584;13.460;2023-12-20T00:20:19;96804.03;;;-0.48;100.00
83308;BME280;73223;48.584;13.460;2023-12-20T00:22:44;96801.41;;;-0.53;100.00
83308;BME280;73223;48.584;13.460;2023-12-20T00:25:10;96804.84;;;-0.51;100.00
83308;BME280;73223;48.584;13.460;2023-12-20T00:27:36;96789.53;;;-0.54;100.00
83308;BME280;73223;48.584;13.460;2023-12-20T00:30:03;96790.75;;;-0.21;100.00
83308;BME280;73223;48.584;13.460;2023-12-20T00:32:29;96798.81;;;0.27;100.00
83308;BME280;73223;48.584;13.460;2023-12-20T00:34:56;96800.59;;;0.39;100.00
83308;BME280;73223;48.584;13.460;2023-12-20T00:37:22;96814.41;;;-0.28;100.00
83308;BME280;73223;48.584;13.460;2023-12-20T00:39:59;96831.28;;;-1.08;100.00
83308;BME280;73223;48.584;13.460;2023-12-20T00:42:50;96836.84;;;-0.70;100.00
83308;BME280;73223;48.584;13.460;2023-12-20T00:45:16;96835.16;;;-0.69;100.00
83308;BME280;73223;48.584;13.460;2023-12-20T00:47:46;96833.88;;;-0.33;100.00
83308;BME280;73223;48.584;13.460;2023-12-20T00:50:16;96842.50;;;-0.24;100.00
83308;BME280;73223;48.584;13.460;2023-12-20T00:52:42;96816.09;;;-0.30;100.00
83308;BME280;73223;48.584;13.460;2023-12-20T00:55:07;96833.19;;;-0.22;100.00
83308;BME280;73223;48.584;13.460;2023-12-20T00:57:34;96830.50;;;-0.32;100.00
83308;BME280;73223;48.584;13.460;2023-12-20T01:00:01;96840.72;;;-0.29;100.00
83308;BME280;73223;48.584;13.460;2023-12-20T01:02:32;96839.78;;;-0.39;100.00
83308;BME280;73223;48.584;13.460;2023-12-20T01:05:09;96843.31;;;-0.26;100.00
83308;BME280;73223;48.584;13.460;2023-12-20T01:07:36;96837.59;;;-0.07;100.00
83308;BME280;73223;48.584;13.460;2023-12-20T01:10:04;96828.22;;;-0.10;100.00
83308;BME280;73223;48.584;13.460;2023-12-20T01:12:30;96819.84;;;0.04;100.00
83308;BME280;73223;48.584;13.460;2023-12-20T01:15:00;96816.56;;;0.14;100.00
83308;BME280;73223;48.584;13.460;2023-12-20T01:17:27;96824.19;;;0.12;100.00
83308;BME280;73223;48.584;13.460;2023-12-20T01:19:55;96822.28;;;-0.07;100.00
83308;BME280;73223;48.584;13.460;2023-12-20T01:22:20;96817.19;;;-0.07;100.00
83308;BME280;73223;48.584;13.460;2023-12-20T01:24:46;96814.66;;;-0.07;100.00
83308;BME280;73223;48.584;13.460;2023-12-20T01:27:11;96804.69;;;0.19;100.00
83308;BME280;73223;48.584;13.460;2023-12-20T01:29:36;96816.72;;;0.33;100.00
83308;BME280;73223;48.584;13.460;2023-12-20T01:32:02;96805.69;;;0.34;100.00
83308;BME280;73223;48.584;13.460;2023-12-20T01:34:29;96806.50;;;0.30;100.00
83308;BME280;73223;48.584;13.460;2023-12-20T01:36:54;96807.44;;;0.43;100.00
83308;BME280;73223;48.584;13.460;2023-12-20T01:39:21;96800.31;;;0.06;100.00
83308;BME280;73223;48.584;13.460;2023-12-20T01:41:47;96790.38;;;0.36;100.00
83308;BME280;73223;48.584;13.460;2023-12-20T01:44:13;96802.44;;;0.55;100.00
83308;BME280;73223;48.584;13.460;2023-12-20T01:46:40;96794.78;;;0.57;100.00
83308;BME280;73223;48.584;13.460;2023-12-20T01:49:06;96788.88;;;0.61;100.00
83308;BME280;73223;48.584;13.460;2023-12-20T01:51:32;96778.59;;;0.47;100.00
83308;BME280;73223;48.584;13.460;2023-12-20T01:54:00;96770.28;;;0.79;100.00
83308;BME280;73223;48.584;13.460;2023-12-20T01:56:27;96776.34;;;0.96;100.00
83308;BME280;73223;48.584;13.460;2023-12-20T01:58:55;96773.75;;;0.91;100.00
83308;BME280;73223;48.584;13.460;2023-12-20T02:01:23;96759.41;;;1.07;100.00
83308;BME280;73223;48.584;13.460;2023-12-20T02:03:50;96754.19;;;0.93;100.00
83308;BME280;73223;48.584;13.460;2023-12-20T02:06:18;96750.91;;;1.16;100.00
83308;BME280;73223;48.584;13.460;2023-12-20T02:08:44;96750.88;;;1.07;100.00
83308;BME280;73223;48.584;13.460;2023-12-20T02:11:10;96741.69;;;1.59;100.00
83308;BME280;73223;48.584;13.460;2023-12-20T02:13:35;96734.81;;;1.38;100.00
83308;BME280;73223;48.584;13.460;2023-12-20T02:16:01;96743.03;;;0.68;100.00
83308;BME280;73223;48.584;13.460;2023-12-20T02:18:27;96725.38;;;1.16;100.00
83308;BME280;73223;48.584;13.460;2023-12-20T02:20:53;96720.28;;;1.16;100.00
83308;BME280;73223;48.584;13.460;2023-12-20T02:23:18;96713.53;;;1.45;100.00
83308;BME280;73223;48.584;13.460;2023-12-20T02:25:46;96716.91;;;1.21;100.00
83308;BME280;73223;48.584;13.460;2023-12-20T02:28:11;96701.63;;;1.49;100.00
83308;BME280;73223;48.584;13.460;2023-12-20T02:30:37;96696.53;;;1.47;100.00
83308;BME280;73223;48.584;13.460;2023-12-20T02:33:07;96696.53;;;1.47;100.00
83308;BME280;73223;48.584;13.460;2023-12-20T02:35:34;96689.72;;;1.43;100.00
83308;BME280;73223;48.584;13.460;2023-12-20T02:38:01;96692.28;;;1.61;100.00
83308;BME280;73223;48.584;13.460;2023-12-20T02:40:27;96687.22;;;1.78;100.00
83308;BME280;73223;48.584;13.460;2023-12-20T02:42:53;96680.38;;;1.82;100.00
83308;BME280;73223;48.584;13.460;2023-12-20T02:45:18;96679.53;;;1.67;100.00
83308;BME280;73223;48.584;13.460;2023-12-20T02:47:45;96682.09;;;1.70;100.00
83308;BME280;73223;48.584;13.460;2023-12-20T02:50:10;96680.38;;;1.68;100.00
83308;BME280;73223;48.584;13.460;2023-12-20T02:52:38;96678.69;;;1.67;100.00
83308;BME280;73223;48.584;13.460;2023-12-20T02:55:03;96676.13;;;1.64;100.00
83308;BME280;73223;48.584;13.460;2023-12-20T02:57:29;96669.31;;;1.70;100.00
83308;BME280;73223;48.584;13.460;2023-12-20T02:59:56;96665.91;;;1.55;100.00
83308;BME280;73223;48.584;13.460;2023-12-20T03:02:25;96665.06;;;1.69;100.00
83308;BME280;73223;48.584;13.460;2023-12-20T03:04:50;96663.38;;;1.74;100.00
83308;BME280;73223;48.584;13.460;2023-12-20T03:07:18;96662.50;;;1.82;100.00
83308;BME280;73223;48.584;13.460;2023-12-20T03:09:43;96657.41;;;1.91;100.00
83308;BME280;73223;48.584;13.460;2023-12-20T03:12:09;96658.25;;;1.78;100.00
83308;BME280;73223;48.584;13.460;2023-12-20T03:14:35;96658.25;;;1.74;100.00
83308;BME280;73223;48.584;13.460;2023-12-20T03:17:01;96659.09;;;1.86;100.00
83308;BME280;73223;48.584;13.460;2023-12-20T03:19:28;96654.00;;;1.96;100.00
83308;BME280;73223;48.584;13.460;2023-12-20T03:21:55;96644.63;;;1.79;100.00
83308;BME280;73223;48.584;13.460;2023-12-20T03:24:21;96660.81;;;1.93;100.00
83308;BME280;73223;48.584;13.460;2023-12-20T03:26:48;96655.72;;;1.91;100.00
83308;BME280;73223;48.584;13.460;2023-12-20T03:29:14;96652.28;;;1.66;100.00
83308;BME280;73223;48.584;13.460;2023-12-20T03:31:40;96642.06;;;1.82;100.00
83308;BME280;73223;48.584;13.460;2023-12-20T03:34:05;96645.47;;;1.87;100.00
83308;BME280;73223;48.584;13.460;2023-12-20T03:36:34;96643.75;;;1.83;100.00
83308;BME280;73223;48.584;13.460;2023-12-20T03:39:00;96634.41;;;1.83;100.00
83308;BME280;73223;48.584;13.460;2023-12-20T03:41:28;96643.75;;;1.98;100.00
83308;BME280;73223;48.584;13.460;2023-12-20T03:43:53;96637.81;;;1.96;100.00
83308;BME280;73223;48.584;13.460;2023-12-20T03:46:19;96622.47;;;2.11;100.00
83308;BME280;73223;48.584;13.460;2023-12-20T03:48:44;96625.00;;;1.97;100.00
83308;BME280;73223;48.584;13.460;2023-12-20T03:51:10;96625.84;;;1.99;100.00
83308;BME280;73223;48.584;13.460;2023-12-20T03:53:37;96631.81;;;2.03;100.00
83308;BME280;73223;48.584;13.460;2023-12-20T03:56:03;96638.66;;;1.96;100.00
83308;BME280;73223;48.584;13.460;2023-12-20T03:58:28;96635.25;;;2.05;100.00
83308;BME280;73223;48.584;13.460;2023-12-20T04:00:54;96638.66;;;1.86;100.00
83308;BME280;73223;48.584;13.460;2023-12-20T04:03:19;96630.16;;;1.74;100.00
83308;BME280;73223;48.584;13.460;2023-12-20T04:05:45;96636.94;;;1.98;100.00
83308;BME280;73223;48.584;13.460;2023-12-20T04:08:11;96638.66;;;1.93;100.00
83308;BME280;73223;48.584;13.460;2023-12-20T04:10:43;96646.34;;;1.75;100.00
83308;BME280;73223;48.584;13.460;2023-12-20T04:13:09;96645.47;;;1.62;100.00
83308;BME280;73223;48.584;13.460;2023-12-20T04:15:34;96637.78;;;1.52;100.00
83308;BME280;73223;48.584;13.460;2023-12-20T04:18:00;96637.81;;;1.68;100.00
83308;BME280;73223;48.584;13.460;2023-12-20T04:20:26;96647.16;;;1.66;100.00
83308;BME280;73223;48.584;13.460;2023-12-20T04:22:52;96645.47;;;1.56;100.00
83308;BME280;73223;48.584;13.460;2023-12-20T04:25:19;96648.88;;;1.42;100.00
83308;BME280;73223;48.584;13.460;2023-12-20T04:27:54;96647.09;;;1.27;100.00
83308;BME280;73223;48.584;13.460;2023-12-20T04:30:22;96646.25;;;1.17;100.00
83308;BME280;73223;48.584;13.460;2023-12-20T04:32:51;96649.66;;;1.27;100.00
83308;BME280;73223;48.584;13.460;2023-12-20T04:35:16;96647.97;;;1.18;100.00
83308;BME280;73223;48.584;13.460;2023-12-20T04:37:48;96658.97;;;1.03;100.00
83308;BME280;73223;48.584;13.460;2023-12-20T04:40:14;96646.25;;;1.20;100.00
83308;BME280;73223;48.584;13.460;2023-12-20T04:42:40;96648.88;;;1.42;100.00
83308;BME280;73223;48.584;13.460;2023-12-20T04:45:06;96648.84;;;1.45;100.00
83308;BME280;73223;48.584;13.460;2023-12-20T04:47:32;96646.31;;;1.40;100.00
83308;BME280;73223;48.584;13.460;2023-12-20T04:50:00;96647.13;;;1.45;100.00
83308;BME280;73223;48.584;13.460;2023-12-20T04:52:30;96650.53;;;1.35;100.00
83308;BME280;73223;48.584;13.460;2023-12-20T04:54:56;96653.94;;;1.35;100.00
83308;BME280;73223;48.584;13.460;2023-12-20T04:57:23;96649.72;;;1.39;100.00
83308;BME280;73223;48.584;13.460;2023-12-20T04:59:48;96666.72;;;1.48;100.00
83308;BME280;73223;48.584;13.460;2023-12-20T05:02:18;96657.34;;;1.36;100.00
83308;BME280;73223;48.584;13.460;2023-12-20T05:04:50;96653.97;;;1.52;100.00
83308;BME280;73223;48.584;13.460;2023-12-20T05:07:17;96652.25;;;1.37;100.00
83308;BME280;73223;48.584;13.460;2023-12-20T05:09:47;96665.91;;;1.43;100.00
83308;BME280;73223;48.584;13.460;2023-12-20T05:12:39;96657.34;;;1.45;100.00
83308;BME280;73223;48.584;13.460;2023-12-20T05:15:16;96658.19;;;1.33;100.00
83308;BME280;73223;48.584;13.460;2023-12-20T05:17:44;96655.63;;;1.30;100.00
83308;BME280;73223;48.584;13.460;2023-12-20T05:20:13;96670.16;;;1.41;100.00
83308;BME280;73223;48.584;13.460;2023-12-20T05:22:56;96676.91;;;1.28;100.00
83308;BME280;73223;48.584;13.460;2023-12-20T05:25:57;96681.22;;;1.39;100.00
83308;BME280;73223;48.584;13.460;2023-12-20T05:28:33;96685.47;;;1.42;100.00
83308;BME280;73223;48.584;13.460;2023-12-20T05:31:15;96682.06;;;1.43;100.00
83308;BME280;73223;48.584;13.460;2023-12-20T05:33:50;96680.34;;;1.50;100.00
83308;BME280;73223;48.584;13.460;2023-12-20T05:36:31;96678.66;;;1.55;100.00
83308;BME280;73223;48.584;13.460;2023-12-20T05:39:23;96694.03;;;1.59;100.00
83308;BME280;73223;48.584;13.460;2023-12-20T05:42:01;96694.88;;;1.70;100.00
83308;BME280;73223;48.584;13.460;2023-12-20T05:44:26;96694.03;;;1.70;100.00
83308;BME280;73223;48.584;13.460;2023-12-20T05:46:58;96700.84;;;1.86;100.00
83308;BME280;73223;48.584;13.460;2023-12-20T05:49:28;96701.72;;;1.78;100.00
83308;BME280;73223;48.584;13.460;2023-12-20T05:51:56;96709.38;;;2.02;100.00
83308;BME280;73223;48.584;13.460;2023-12-20T05:54:25;96712.78;;;2.08;100.00
83308;BME280;73223;48.584;13.460;2023-12-20T05:56:59;96712.78;;;1.89;100.00
83308;BME280;73223;48.584;13.460;2023-12-20T05:59:41;96721.31;;;1.94;100.00
83308;BME280;73223;48.584;13.460;2023-12-20T06:02:16;96725.53;;;1.83;100.00
83308;BME280;73223;48.584;13.460;2023-12-20T06:04:46;96724.69;;;2.38;100.00
83308;BME280;73223;48.584;13.460;2023-12-20T06:07:14;96727.25;;;2.43;100.00
83308;BME280;73223;48.584;13.460;2023-12-20T06:09:54;96741.78;;;2.12;100.00
83308;BME280;73223;48.584;13.460;2023-12-20T06:12:21;96742.63;;;2.06;100.00
83308;BME280;73223;48.584;13.460;2023-12-20T06:14:48;96757.13;;;2.27;100.00
83308;BME280;73223;48.584;13.460;2023-12-20T06:17:16;96752.00;;;2.14;100.00
83308;BME280;73223;48.584;13.460;2023-12-20T06:19:43;96753.69;;;2.12;100.00
83308;BME280;73223;48.584;13.460;2023-12-20T06:22:17;96757.13;;;2.32;100.00
83308;BME280;73223;48.584;13.460;2023-12-20T06:24:42;96750.28;;;2.09;100.00
83308;BME280;73223;48.584;13.460;2023-12-20T06:27:10;96757.94;;;1.79;100.00
83308;BME280;73223;48.584;13.460;2023-12-20T06:29:38;96757.94;;;1.88;100.00
83308;BME280;73223;48.584;13.460;2023-12-20T06:32:45;96760.31;;;1.24;100.00
83308;BME280;73223;48.584;13.460;2023-12-20T06:35:20;96753.56;;;1.45;100.00
83308;BME280;73223;48.584;13.460;2023-12-20T06:37:46;96757.81;;;1.46;100.00
83308;BME280;73223;48.584;13.460;2023-12-20T06:40:12;96755.31;;;1.55;100.00
83308;BME280;73223;48.584;13.460;2023-12-20T06:42:56;96756.19;;;1.80;100.00
83308;BME280;73223;48.584;13.460;2023-12-20T06:45:48;96758.72;;;1.61;100.00
83308;BME280;73223;48.584;13.460;2023-12-20T06:48:39;96762.94;;;1.39;100.00
83308;BME280;73223;48.584;13.460;2023-12-20T06:51:29;96762.97;;;1.55;100.00
83308;BME280;73223;48.584;13.460;2023-12-20T06:54:19;96760.38;;;3.16;100.00
83308;BME280;73223;48.584;13.460;2023-12-20T06:56:45;96762.19;;;2.71;100.00
83308;BME280;73223;48.584;13.460;2023-12-20T06:59:10;96770.72;;;2.75;100.00
83308;BME280;73223;48.584;13.460;2023-12-20T07:01:35;96770.72;;;2.60;100.00
83308;BME280;73223;48.584;13.460;2023-12-20T07:04:01;96781.84;;;2.13;100.00
83308;BME280;73223;48.584;13.460;2023-12-20T07:06:26;96777.56;;;2.12;100.00
83308;BME280;73223;48.584;13.460;2023-12-20T07:08:52;96786.91;;;2.01;100.00
83308;BME280;73223;48.584;13.460;2023-12-20T07:11:17;96785.22;;;2.07;100.00
83308;BME280;73223;48.584;13.460;2023-12-20T07:13:44;96798.88;;;2.11;100.00
83308;BME280;73223;48.584;13.460;2023-12-20T07:16:09;96802.22;;;1.89;100.00
83308;BME280;73223;48.584;13.460;2023-12-20T07:18:34;96801.41;;;1.96;100.00
83308;BME280;73223;48.584;13.460;2023-12-20T07:20:59;96807.34;;;1.92;100.00
83308;BME280;73223;48.584;13.460;2023-12-20T07:23:25;96811.63;;;1.94;100.00
83308;BME280;73223;48.584;13.460;2023-12-20T07:25:51;96827.84;;;2.21;100.00
83308;BME280;73223;48.584;13.460;2023-12-20T07:28:18;96825.31;;;2.15;100.00
83308;BME280;73223;48.584;13.460;2023-12-20T07:30:50;96822.75;;;2.40;100.00
83308;BME280;73223;48.584;13.460;2023-12-20T07:33:16;96821.91;;;2.63;100.00
83308;BME280;73223;48.584;13.460;2023-12-20T07:35:41;96828.72;;;2.56;100.00
83308;BME280;73223;48.584;13.460;2023-12-20T07:38:06;96832.97;;;2.27;100.00
83308;BME280;73223;48.584;13.460;2023-12-20T07:40:32;96827.00;;;2.13;100.00
83308;BME280;73223;48.584;13.460;2023-12-20T07:42:57;96833.00;;;2.33;100.00
83308;BME280;73223;48.584;13.460;2023-12-20T07:45:23;96840.66;;;2.27;100.00
83308;BME280;73223;48.584;13.460;2023-12-20T07:47:48;96844.88;;;2.17;100.00
83308;BME280;73223;48.584;13.460;2023-12-20T07:50:15;96844.09;;;2.47;100.00
83308;BME280;73223;48.584;13.460;2023-12-20T07:52:40;96839.81;;;2.84;100.00
83308;BME280;73223;48.584;13.460;2023-12-20T07:55:06;96837.25;;;2.25;100.00
83308;BME280;73223;48.584;13.460;2023-12-20T07:57:31;96841.50;;;2.52;100.00
83308;BME280;73223;48.584;13.460;2023-12-20T07:59:56;96841.53;;;2.67;100.00
83308;BME280;73223;48.584;13.460;2023-12-20T08:02:22;96841.53;;;2.64;100.00
83308;BME280;73223;48.584;13.460;2023-12-20T08:04:47;96838.97;;;2.65;100.00
83308;BME280;73223;48.584;13.460;2023-12-20T08:07:12;96851.75;;;2.44;100.00
83308;BME280;73223;48.584;13.460;2023-12-20T08:09:38;96842.38;;;2.69;100.00
83308;BME280;73223;48.584;13.460;2023-12-20T08:12:03;96838.97;;;2.65;100.00
83308;BME280;73223;48.584;13.460;2023-12-20T08:14:28;96839.81;;;2.60;100.00
83308;BME280;73223;48.584;13.460;2023-12-20T08:16:54;96852.63;;;2.76;100.00
83308;BME280;73223;48.584;13.460;2023-12-20T08:19:19;96850.03;;;2.69;100.00
83308;BME280;73223;48.584;13.460;2023-12-20T08:21:44;96857.72;;;2.60;100.00
83308;BME280;73223;48.584;13.460;2023-12-20T08:24:10;96867.13;;;2.62;100.00
83308;BME280;73223;48.584;13.460;2023-12-20T08:26:35;96856.00;;;2.42;100.00
83308;BME280;73223;48.584;13.460;2023-12-20T08:29:00;96865.41;;;2.57;100.00
83308;BME280;73223;48.584;13.460;2023-12-20T08:31:25;96866.28;;;2.68;100.00
83308;BME280;73223;48.584;13.460;2023-12-20T08:33:51;96857.72;;;2.72;100.00
83308;BME280;73223;48.584;13.460;2023-12-20T08:36:19;96864.53;;;2.91;100.00
83308;BME280;73223;48.584;13.460;2023-12-20T08:38:46;96860.28;;;2.95;100.00
83308;BME280;73223;48.584;13.460;2023-12-20T08:41:12;96867.97;;;2.86;100.00
83308;BME280;73223;48.584;13.460;2023-12-20T08:43:37;96875.66;;;2.98;100.00
83308;BME280;73223;48.584;13.460;2023-12-20T08:46:05;96876.47;;;3.06;100.00
83308;BME280;73223;48.584;13.460;2023-12-20T08:48:30;96875.63;;;2.72;100.00
83308;BME280;73223;48.584;13.460;2023-12-20T08:50:55;96856.88;;;2.82;100.00
83308;BME280;73223;48.584;13.460;2023-12-20T08:53:21;96867.09;;;2.96;100.00
83308;BME280;73223;48.584;13.460;2023-12-20T08:55:46;96872.25;;;2.68;100.00
83308;BME280;73223;48.584;13.460;2023-12-20T08:58:12;96862.84;;;2.81;100.00
83308;BME280;73223;48.584;13.460;2023-12-20T09:00:37;96864.53;;;3.06;100.00
83308;BME280;73223;48.584;13.460;2023-12-20T09:03:04;96863.63;;;3.24;100.00
83308;BME280;73223;48.584;13.460;2023-12-20T09:05:29;96861.16;;;2.78;100.00
83308;BME280;73223;48.584;13.460;2023-12-20T09:07:55;96876.44;;;3.26;100.00
83308;BME280;73223;48.584;13.460;2023-12-20T09:10:20;96866.22;;;3.20;100.00
83308;BME280;73223;48.584;13.460;2023-12-20T09:12:51;96864.53;;;3.11;100.00
83308;BME280;73223;48.584;13.460;2023-12-20T09:15:17;96869.66;;;3.03;100.00
83308;BME280;73223;48.584;13.460;2023-12-20T09:17:42;96873.88;;;3.32;100.00
83308;BME280;73223;48.584;13.460;2023-12-20T09:20:09;96867.91;;;3.33;100.00
83308;BME280;73223;48.584;13.460;2023-12-20T09:22:34;96864.47;;;3.38;100.00
83308;BME280;73223;48.584;13.460;2023-12-20T09:25:00;96866.19;;;3.26;100.00
83308;BME280;73223;48.584;13.460;2023-12-20T09:27:27;96859.34;;;3.38;100.00
83308;BME280;73223;48.584;13.460;2023-12-20T09:29:52;96863.63;;;3.24;100.00
83308;BME280;73223;48.584;13.460;2023-12-20T09:32:18;96868.75;;;3.29;100.00
83308;BME280;73223;48.584;13.460;2023-12-20T09:34:45;96867.06;;;3.31;100.00
83308;BME280;73223;48.584;13.460;2023-12-20T09:37:10;96868.75;;;3.29;100.00
83308;BME280;73223;48.584;13.460;2023-12-20T09:39:36;96858.41;;;3.67;100.00
83308;BME280;73223;48.584;13.460;2023-12-20T09:44:28;96858.50;;;3.29;100.00
83308;BME280;73223;48.584;13.460;2023-12-20T09:46:55;96859.38;;;3.35;100.00
83308;BME280;73223;48.584;13.460;2023-12-20T09:49:21;96852.50;;;3.46;100.00
83308;BME280;73223;48.584;13.460;2023-12-20T09:51:47;96851.69;;;3.28;100.00
83308;BME280;73223;48.584;13.460;2023-12-20T09:54:14;96848.28;;;3.24;100.00
83308;BME280;73223;48.584;13.460;2023-12-20T09:56:40;96848.31;;;3.17;100.00
83308;BME280;73223;48.584;13.460;2023-12-20T09:59:05;96850.88;;;3.20;100.00
83308;BME280;73223;48.584;13.460;2023-12-20T10:01:31;96845.66;;;3.45;100.00
83308;BME280;73223;48.584;13.460;2023-12-20T10:03:57;96856.81;;;3.38;100.00
83308;BME280;73223;48.584;13.460;2023-12-20T10:06:23;96851.63;;;3.44;100.00
83308;BME280;73223;48.584;13.460;2023-12-20T10:08:49;96840.47;;;3.67;100.00
83308;BME280;73223;48.584;13.460;2023-12-20T10:11:14;96843.03;;;3.61;100.00
83308;BME280;73223;48.584;13.460;2023-12-20T10:13:43;96841.22;;;3.92;100.00
83308;BME280;73223;48.584;13.460;2023-12-20T10:16:08;96831.94;;;3.62;100.00
83308;BME280;73223;48.584;13.460;2023-12-20T10:18:35;96831.03;;;3.73;100.00
83308;BME280;73223;48.584;13.460;2023-12-20T10:21:01;96833.69;;;3.49;100.00
83308;BME280;73223;48.584;13.460;2023-12-20T10:23:26;96831.06;;;3.67;100.00
83308;BME280;73223;48.584;13.460;2023-12-20T10:25:58;96828.56;;;3.51;100.00
83308;BME280;73223;48.584;13.460;2023-12-20T10:28:24;96825.94;;;3.61;100.00
83308;BME280;73223;48.584;13.460;2023-12-20T10:30:53;96827.63;;;3.71;100.00
83308;BME280;73223;48.584;13.460;2023-12-20T10:33:25;96826.88;;;3.40;100.00
83308;BME280;73223;48.584;13.460;2023-12-20T10:35:52;96823.44;;;3.49;100.00
83308;BME280;73223;48.584;13.460;2023-12-20T10:38:17;96826.69;;;3.91;100.00
83308;BME280;73223;48.584;13.460;2023-12-20T10:40:45;96819.88;;;3.79;100.00
83308;BME280;73223;48.584;13.460;2023-12-20T10:43:11;96807.03;;;3.87;100.00
83308;BME280;73223;48.584;13.460;2023-12-20T10:45:37;96806.16;;;3.94;100.00
83308;BME280;73223;48.584;13.460;2023-12-20T10:48:02;96798.50;;;3.83;100.00
83308;BME280;73223;48.584;13.460;2023-12-20T10:50:28;96794.34;;;3.61;100.00
83308;BME280;73223;48.584;13.460;2023-12-20T10:52:55;96804.41;;;3.97;100.00
83308;BME280;73223;48.584;13.460;2023-12-20T10:55:22;96794.09;;;4.09;100.00
83308;BME280;73223;48.584;13.460;2023-12-20T10:57:48;96802.78;;;3.86;100.00
83308;BME280;73223;48.584;13.460;2023-12-20T11:00:17;96798.50;;;3.88;100.00
83308;BME280;73223;48.584;13.460;2023-12-20T11:02:43;96800.06;;;4.10;100.00
83308;BME280;73223;48.584;13.460;2023-12-20T11:08:12;96808.75;;;3.88;100.00
83308;BME280;73223;48.584;13.460;2023-12-20T11:11:04;96808.56;;;4.18;100.00
83308;BME280;73223;48.584;13.460;2023-12-20T11:13:36;96807.72;;;4.17;100.00
83308;BME280;73223;48.584;13.460;2023-12-20T11:16:03;96798.50;;;3.89;100.00
83308;BME280;73223;48.584;13.460;2023-12-20T11:18:29;96787.28;;;4.07;100.00
83308;BME280;73223;48.584;13.460;2023-12-20T11:21:00;96801.03;;;3.94;100.00
83308;BME280;73223;48.584;13.460;2023-12-20T11:23:26;96793.22;;;4.12;100.00
83308;BME280;73223;48.584;13.460;2023-12-20T11:25:56;96794.13;;;4.06;100.00
83308;BME280;73223;48.584;13.460;2023-12-20T11:28:24;96784.56;;;4.28;100.00
83308;BME280;73223;48.584;13.460;2023-12-20T11:30:55;96785.31;;;4.39;100.00
83308;BME280;73223;48.584;13.460;2023-12-20T11:33:25;96791.47;;;4.15;100.00
83308;BME280;73223;48.584;13.460;2023-12-20T11:35:50;96793.13;;;4.27;100.00
83308;BME280;73223;48.584;13.460;2023-12-20T11:38:16;96781.16;;;4.25;100.00
83308;BME280;73223;48.584;13.460;2023-12-20T11:40:42;96780.16;;;4.44;100.00
83308;BME280;73223;48.584;13.460;2023-12-20T11:43:09;96782.88;;;4.26;100.00
83308;BME280;73223;48.584;13.460;2023-12-20T11:45:34;96781.00;;;4.44;100.00
83308;BME280;73223;48.584;13.460;2023-12-20T11:48:01;96780.22;;;4.35;100.00
83308;BME280;73223;48.584;13.460;2023-12-20T11:50:27;96790.69;;;4.06;100.00
83308;BME280;73223;48.584;13.460;2023-12-20T11:52:53;96789.84;;;4.04;100.00
83308;BME280;73223;48.584;13.460;2023-12-20T11:55:21;96789.69;;;4.27;100.00
83308;BME280;73223;48.584;13.460;2023-12-20T11:57:46;96783.78;;;4.12;100.00
83308;BME280;73223;48.584;13.460;2023-12-20T12:00:13;96788.13;;;4.06;100.00
83308;BME280;73223;48.584;13.460;2023-12-20T12:02:38;96792.38;;;4.08;100.00
83308;BME280;73223;48.584;13.460;2023-12-20T12:05:04;96794.13;;;4.06;100.00
83308;BME280;73223;48.584;13.460;2023-12-20T12:07:31;96767.53;;;4.16;100.00
83308;BME280;73223;48.584;13.460;2023-12-20T12:09:56;96778.63;;;4.17;100.00
83308;BME280;73223;48.584;13.460;2023-12-20T12:12:21;96774.31;;;4.24;100.00
83308;BME280;73223;48.584;13.460;2023-12-20T12:14:47;96766.69;;;4.14;100.00
83308;BME280;73223;48.584;13.460;2023-12-20T12:17:13;96766.59;;;4.28;100.00
83308;BME280;73223;48.584;13.460;2023-12-20T12:19:42;96755.53;;;4.20;100.00
83308;BME280;73223;48.584;13.460;2023-12-20T12:22:11;96754.59;;;4.30;100.00
83308;BME280;73223;48.584;13.460;2023-12-20T12:24:43;96752.75;;;4.47;100.00
83308;BME280;73223;48.584;13.460;2023-12-20T12:27:09;96746.13;;;4.22;100.00
83308;BME280;73223;48.584;13.460;2023-12-20T12:29:35;96745.41;;;4.03;100.00
83308;BME280;73223;48.584;13.460;2023-12-20T12:32:01;96746.13;;;4.21;100.00
83308;BME280;73223;48.584;13.460;2023-12-20T12:34:29;96757.97;;;4.34;100.00
83308;BME280;73223;48.584;13.460;2023-12-20T12:36:56;96739.09;;;4.47;100.00
83308;BME280;73223;48.584;13.460;2023-12-20T12:39:23;96729.53;;;4.60;100.00
83308;BME280;73223;48.584;13.460;2023-12-20T12:41:50;96754.03;;;3.90;100.00
83308;BME280;73223;48.584;13.460;2023-12-20T12:44:15;96728.19;;;4.19;100.00
83308;BME280;73223;48.584;13.460;2023-12-20T12:46:41;96737.56;;;4.20;100.00
83308;BME280;73223;48.584;13.460;2023-12-20T12:49:06;96738.44;;;4.19;100.00
83308;BME280;73223;48.584;13.460;2023-12-20T12:51:31;96724.78;;;4.12;100.00
83308;BME280;73223;48.584;13.460;2023-12-20T12:53:56;96724.88;;;4.02;100.00
83308;BME280;73223;48.584;13.460;2023-12-20T12:56:22;96724.84;;;4.08;100.00
83308;BME280;73223;48.584;13.460;2023-12-20T12:58:47;96713.13;;;3.73;100.00